Time;durP1;ratioP1;P1;durP2;ratioP2;P2;SDS_P1;SDS_P2;PMS_P1;PMS_P2;Temp;Humidity;BMP_temperature;BMP_pressure;BME280_temperature;BME280_humidity;BME280_pressure;Samples;Min_cycle;Max_cycle;Signal;HPM_P1;HPM_P2
2024/01/11 00:00:43;;;;;;;2.45;1.08;;;4.10;99.90;;;;;;5089776;28;20044;-66
2024/01/11 00:03:11;;;;;;;1.75;0.90;;;4.10;99.90;;;;;;5088481;28;20056;-65
2024/01/11 00:05:39;;;;;;;1.30;0.95;;;4.20;99.90;;;;;;5089880;28;20047;-67
2024/01/11 00:08:07;;;;;;;3.25;1.10;;;4.10;99.90;;;;;;5088398;28;20063;-68
2024/01/11 00:10:34;;;;;;;1.83;1.08;;;4.20;99.90;;;;;;5072837;28;20051;-65
2024/01/11 00:13:02;;;;;;;2.15;1.08;;;4.10;99.90;;;;;;5099884;28;20523;-64
2024/01/11 00:15:30;;;;;;;1.35;0.70;;;4.10;99.90;;;;;;5089672;28;20048;-65
2024/01/11 00:17:58;;;;;;;4.60;0.90;;;4.10;99.90;;;;;;5091334;28;20040;-64
2024/01/11 00:20:26;;;;;;;2.05;0.70;;;4.10;99.90;;;;;;5089183;28;20048;-65
2024/01/11 00:22:53;;;;;;;4.93;1.00;;;4.10;99.90;;;;;;5090383;28;20048;-66
2024/01/11 00:25:21;;;;;;;0.82;0.70;;;4.00;99.90;;;;;;5060307;28;20055;-66
2024/01/11 00:27:49;;;;;;;1.65;0.63;;;4.00;99.90;;;;;;5082558;28;20487;-67
2024/01/11 00:30:16;;;;;;;4.50;0.95;;;3.90;99.90;;;;;;5089064;28;20048;-64
2024/01/11 00:32:44;;;;;;;2.10;1.17;;;3.90;99.90;;;;;;5092384;28;20044;-66
2024/01/11 00:35:12;;;;;;;2.65;0.82;;;3.90;99.90;;;;;;5109332;28;20047;-65
2024/01/11 00:37:40;;;;;;;5.88;0.93;;;3.90;99.90;;;;;;5100720;28;20427;-64
2024/01/11 00:40:08;;;;;;;2.88;1.05;;;3.90;99.90;;;;;;5072889;28;20056;-66
2024/01/11 00:42:35;;;;;;;4.03;1.35;;;3.90;99.90;;;;;;5097086;28;20040;-64
2024/01/11 00:45:04;;;;;;;3.20;1.10;;;3.90;99.90;;;;;;5088216;28;20036;-64
2024/01/11 00:47:32;;;;;;;5.03;0.80;;;3.90;99.90;;;;;;5088622;28;20036;-64
2024/01/11 00:50:00;;;;;;;3.58;0.95;;;3.90;99.90;;;;;;5108413;28;20055;-65
2024/01/11 00:52:27;;;;;;;2.17;0.75;;;3.90;99.90;;;;;;5093159;28;20052;-66
2024/01/11 00:54:55;;;;;;;4.60;1.52;;;3.90;99.90;;;;;;5085019;28;20088;-65
2024/01/11 00:57:22;;;;;;;6.53;1.20;;;3.90;99.90;;;;;;5092830;28;20487;-64
2024/01/11 00:59:50;;;;;;;3.47;0.98;;;3.90;99.90;;;;;;5092625;28;20052;-64
2024/01/11 01:02:20;;;;;;;1.77;0.90;;;3.90;99.90;;;;;;5088079;28;20048;-64
2024/01/11 01:04:47;;;;;;;5.82;1.42;;;3.80;99.90;;;;;;5088470;28;20044;-63
2024/01/11 01:07:15;;;;;;;2.25;0.80;;;3.80;99.90;;;;;;5088099;28;20044;-64
2024/01/11 01:09:43;;;;;;;1.83;0.80;;;3.80;99.90;;;;;;5083835;28;20049;-65
2024/01/11 01:12:10;;;;;;;5.07;1.20;;;3.70;99.90;;;;;;5085006;28;20051;-64
2024/01/11 01:14:38;;;;;;;1.33;0.90;;;3.70;99.90;;;;;;5092099;28;20531;-63
2024/01/11 01:17:06;;;;;;;2.25;1.00;;;3.70;99.90;;;;;;5088890;28;20048;-63
2024/01/11 01:19:34;;;;;;;1.67;1.10;;;3.60;99.90;;;;;;5087847;28;20055;-65
2024/01/11 01:22:01;;;;;;;2.20;1.15;;;3.60;99.90;;;;;;5089580;28;20040;-67
2024/01/11 01:24:31;;;;;;;5.85;1.00;;;3.50;99.90;;;;;;5079096;28;20045;-64
2024/01/11 01:27:00;;;;;;;3.35;1.35;;;3.50;99.90;;;;;;5069755;28;20052;-65
2024/01/11 01:29:27;;;;;;;6.75;1.25;;;3.50;99.90;;;;;;5103237;28;20044;-64
2024/01/11 01:31:55;;;;;;;4.30;1.00;;;3.40;99.90;;;;;;5106268;28;20054;-64
2024/01/11 01:34:23;;;;;;;4.32;1.30;;;3.40;99.90;;;;;;5104540;28;20129;-63
2024/01/11 01:36:51;;;;;;;5.18;1.27;;;3.30;99.90;;;;;;5109595;28;20051;-63
2024/01/11 01:39:19;;;;;;;3.60;0.70;;;3.30;99.90;;;;;;5088237;28;20048;-63
2024/01/11 01:41:47;;;;;;;5.00;0.90;;;3.20;99.90;;;;;;5077992;28;20040;-63
2024/01/11 01:44:14;;;;;;;3.97;1.10;;;3.20;99.90;;;;;;5093093;28;20047;-65
2024/01/11 01:46:42;;;;;;;5.55;1.10;;;3.20;99.90;;;;;;5089063;28;20044;-66
2024/01/11 01:49:11;;;;;;;5.68;1.40;;;3.10;99.90;;;;;;5088627;28;20514;-66
2024/01/11 01:51:39;;;;;;;4.80;1.17;;;3.20;99.90;;;;;;5089217;28;20040;-66
2024/01/11 01:54:07;;;;;;;3.60;1.25;;;3.20;99.90;;;;;;5085866;28;20040;-67
2024/01/11 01:56:35;;;;;;;4.28;1.05;;;3.20;99.90;;;;;;5068536;28;20053;-64
2024/01/11 01:59:04;;;;;;;4.30;0.70;;;3.20;99.90;;;;;;5079172;28;20055;-63
2024/01/11 02:01:33;;;;;;;3.22;0.90;;;3.20;99.90;;;;;;5088716;28;20064;-63
2024/01/11 02:04:01;;;;;;;2.80;1.00;;;3.30;99.90;;;;;;5087452;28;20044;-63
2024/01/11 02:06:32;;;;;;;4.38;1.20;;;3.40;99.90;;;;;;5087493;28;20055;-66
2024/01/11 02:09:03;;;;;;;4.80;1.45;;;3.40;99.90;;;;;;5094369;28;20040;-64
2024/01/11 02:11:30;;;;;;;5.53;1.02;;;3.40;99.90;;;;;;5089679;28;20059;-65
2024/01/11 02:13:58;;;;;;;6.80;1.33;;;3.50;99.90;;;;;;5089340;28;20169;-65
2024/01/11 02:16:26;;;;;;;3.78;1.10;;;3.50;99.90;;;;;;5100204;28;20043;-65
2024/01/11 02:18:54;;;;;;;4.60;1.15;;;3.60;99.90;;;;;;5088126;28;20058;-65
2024/01/11 02:21:23;;;;;;;5.55;1.10;;;3.60;99.90;;;;;;5088387;28;20048;-65
2024/01/11 02:24:05;;;;;;;6.43;1.30;;;3.60;99.90;;;;;;5088055;28;20615;-67
2024/01/11 02:26:33;;;;;;;7.00;1.25;;;3.60;99.90;;;;;;5085103;28;20047;-64
2024/01/11 02:29:02;;;;;;;8.00;1.38;;;3.60;99.90;;;;;;5088071;28;20396;-64
2024/01/11 02:31:30;;;;;;;7.63;1.40;;;3.70;99.90;;;;;;5077689;28;20056;-66
2024/01/11 02:33:58;;;;;;;2.92;1.15;;;3.70;99.90;;;;;;5071213;28;20067;-65
2024/01/11 02:36:26;;;;;;;10.40;1.75;;;3.70;99.90;;;;;;5094085;28;20059;-66
2024/01/11 02:38:55;;;;;;;7.82;1.45;;;3.60;99.90;;;;;;5110939;28;20054;-66
2024/01/11 02:41:24;;;;;;;3.50;1.60;;;3.60;99.90;;;;;;5074669;28;20385;-65
2024/01/11 02:43:53;;;;;;;4.70;1.30;;;3.50;99.90;;;;;;5098099;28;20044;-64
2024/01/11 02:46:21;;;;;;;2.37;1.07;;;3.50;99.90;;;;;;5089730;28;20048;-64
2024/01/11 02:48:48;;;;;;;7.05;1.75;;;3.50;99.90;;;;;;5091383;28;20040;-63
2024/01/11 02:51:16;;;;;;;7.22;1.08;;;3.50;99.90;;;;;;5090623;28;20399;-64
2024/01/11 02:53:44;;;;;;;8.75;1.95;;;3.40;99.90;;;;;;5091418;28;20055;-64
2024/01/11 02:56:12;;;;;;;5.50;1.58;;;3.40;99.90;;;;;;5086023;28;20048;-64
2024/01/11 02:58:40;;;;;;;7.45;2.78;;;3.40;99.90;;;;;;5070578;28;20045;-64
2024/01/11 03:01:07;;;;;;;3.40;1.20;;;3.40;99.90;;;;;;5071219;28;20048;-64
2024/01/11 03:03:35;;;;;;;7.57;1.83;;;3.40;99.90;;;;;;5053885;28;20045;-64
2024/01/11 03:06:04;;;;;;;8.10;1.60;;;3.30;99.90;;;;;;5089287;28;20484;-63
2024/01/11 03:08:31;;;;;;;8.20;1.80;;;3.30;99.90;;;;;;5090912;28;20048;-64
2024/01/11 03:10:59;;;;;;;5.18;1.23;;;3.20;99.90;;;;;;5089969;28;20632;-64
2024/01/11 03:13:27;;;;;;;6.18;1.88;;;3.20;99.90;;;;;;5070422;28;20055;-65
2024/01/11 03:15:54;;;;;;;4.38;1.73;;;3.20;99.90;;;;;;5075109;28;20079;-64
2024/01/11 03:18:22;;;;;;;8.65;1.10;;;3.20;99.90;;;;;;5091342;28;20044;-64
2024/01/11 03:20:50;;;;;;;5.10;1.50;;;3.20;99.90;;;;;;5091053;28;20048;-65
2024/01/11 03:23:18;;;;;;;5.70;1.10;;;3.20;99.90;;;;;;5090863;28;20387;-65
2024/01/11 03:25:46;;;;;;;9.55;1.63;;;3.20;99.90;;;;;;5091052;28;20479;-63
2024/01/11 03:28:13;;;;;;;3.75;0.95;;;3.20;99.90;;;;;;5091206;28;20044;-64
2024/01/11 03:30:41;;;;;;;2.60;1.05;;;3.20;99.90;;;;;;5089131;28;20052;-63
2024/01/11 03:33:09;;;;;;;6.50;1.00;;;3.10;99.90;;;;;;5080344;28;20051;-64
2024/01/11 03:35:40;;;;;;;7.15;1.17;;;3.10;99.90;;;;;;5111429;28;20052;-64
2024/01/11 03:38:07;;;;;;;9.90;1.60;;;3.10;99.90;;;;;;5111388;28;20040;-64
2024/01/11 03:40:35;;;;;;;8.43;2.28;;;3.10;99.90;;;;;;5107567;28;20047;-64
2024/01/11 03:43:04;;;;;;;9.60;2.58;;;3.10;99.90;;;;;;5089703;28;20039;-64
2024/01/11 03:45:31;;;;;;;6.95;1.98;;;3.10;99.90;;;;;;5071503;28;20049;-64
2024/01/11 03:48:01;;;;;;;5.70;2.00;;;3.10;99.90;;;;;;5069366;28;20037;-64
2024/01/11 03:50:28;;;;;;;;;;;3.10;99.90;;;;;;5070934;28;20041;-64
2024/01/11 03:52:56;;;;;;;6.65;2.25;;;3.10;99.90;;;;;;5072591;28;19920;-64
2024/01/11 03:55:24;;;;;;;10.52;2.40;;;3.10;99.90;;;;;;5093021;28;20248;-63
2024/01/11 03:57:52;;;;;;;11.52;2.50;;;3.10;99.90;;;;;;5094564;28;20048;-64
2024/01/11 04:00:20;;;;;;;7.07;2.90;;;3.20;99.90;;;;;;5094500;28;20048;-64
2024/01/11 04:02:48;;;;;;;12.02;2.78;;;3.10;99.90;;;;;;5094334;28;20040;-64
2024/01/11 04:05:16;;;;;;;9.57;2.80;;;3.20;99.90;;;;;;5094248;28;20479;-64
2024/01/11 04:07:43;;;;;;;10.63;2.05;;;3.20;99.90;;;;;;5093012;28;20491;-66
2024/01/11 04:10:11;;;;;;;8.57;2.05;;;3.10;99.90;;;;;;5112219;28;20125;-66
2024/01/11 04:12:38;;;;;;;8.38;2.10;;;3.20;99.90;;;;;;5096306;28;20048;-67
2024/01/11 04:15:07;;;;;;;6.13;2.22;;;3.20;99.90;;;;;;5073898;28;20048;-66
2024/01/11 04:17:34;;;;;;;2.65;2.00;;;3.30;99.90;;;;;;5082071;28;20051;-66
2024/01/11 04:20:02;;;;;;;10.30;2.30;;;3.30;99.90;;;;;;5094150;28;20048;-64
2024/01/11 04:22:30;;;;;;;5.10;2.15;;;3.30;99.90;;;;;;5093895;28;20055;-64
2024/01/11 04:24:58;;;;;;;6.60;2.17;;;3.30;99.90;;;;;;5094156;28;20059;-64
2024/01/11 04:27:25;;;;;;;7.97;2.25;;;3.30;99.90;;;;;;5093757;28;20044;-65
2024/01/11 04:29:53;;;;;;;6.85;2.20;;;3.40;99.90;;;;;;5094056;28;20051;-64
2024/01/11 04:32:21;;;;;;;10.15;2.60;;;3.40;99.90;;;;;;5093021;28;20048;-63
2024/01/11 04:34:48;;;;;;;7.85;2.38;;;3.30;99.90;;;;;;5093904;28;20395;-64
2024/01/11 04:37:16;;;;;;;6.32;2.33;;;3.30;99.90;;;;;;5084775;28;20047;-64
2024/01/11 04:39:44;;;;;;;9.93;2.60;;;3.30;99.90;;;;;;5085012;28;20055;-65
2024/01/11 04:42:11;;;;;;;13.48;2.28;;;3.30;99.90;;;;;;5095180;28;20040;-63
2024/01/11 04:44:39;;;;;;;4.35;1.83;;;3.30;99.90;;;;;;5093389;28;20094;-65
2024/01/11 04:47:08;;;;;;;4.57;1.98;;;3.30;99.90;;;;;;5092777;28;20048;-64
2024/01/11 04:49:36;;;;;;;10.23;2.20;;;3.30;99.90;;;;;;5093671;28;20055;-66
2024/01/11 04:52:04;;;;;;;8.70;2.17;;;3.30;99.90;;;;;;5102980;28;20490;-63
2024/01/11 04:54:31;;;;;;;9.38;2.40;;;3.30;99.90;;;;;;5113905;28;20040;-64
2024/01/11 04:56:59;;;;;;;5.32;2.30;;;3.30;99.90;;;;;;5101410;28;20055;-64
2024/01/11 04:59:27;;;;;;;5.45;2.40;;;3.30;99.90;;;;;;5093492;28;20048;-65
2024/01/11 05:01:55;;;;;;;7.85;2.65;;;3.30;99.90;;;;;;5090641;28;20075;-65
2024/01/11 05:04:22;;;;;;;7.50;2.20;;;3.30;99.90;;;;;;5090367;28;20043;-66
2024/01/11 05:06:51;;;;;;;8.90;2.60;;;3.30;99.90;;;;;;5093089;28;20060;-66
2024/01/11 05:09:19;;;;;;;7.50;3.20;;;3.30;99.90;;;;;;5092557;28;20040;-65
2024/01/11 05:11:47;;;;;;;8.95;2.72;;;3.40;99.90;;;;;;5093369;28;20052;-64
2024/01/11 05:14:15;;;;;;;10.07;3.40;;;3.40;99.90;;;;;;5093220;28;20067;-65
2024/01/11 05:16:43;;;;;;;14.25;2.83;;;3.40;99.90;;;;;;5091349;28;20067;-65
2024/01/11 05:19:11;;;;;;;18.13;5.25;;;3.40;99.90;;;;;;5093062;28;20395;-65
2024/01/11 05:21:39;;;;;;;7.15;2.40;;;3.40;99.90;;;;;;5092089;28;20059;-64
2024/01/11 05:24:06;;;;;;;8.07;3.08;;;3.40;99.90;;;;;;5086643;28;20044;-65
2024/01/11 05:26:38;;;;;;;8.60;3.15;;;3.40;99.90;;;;;;5080762;28;20055;-64
2024/01/11 05:29:06;;;;;;;6.82;4.25;;;3.40;99.90;;;;;;5092547;28;20044;-64
2024/01/11 05:31:33;;;;;;;9.35;3.10;;;3.40;99.90;;;;;;5106146;28;20063;-63
2024/01/11 05:34:02;;;;;;;9.45;3.08;;;3.50;99.90;;;;;;5113140;28;20055;-63
2024/01/11 05:36:30;;;;;;;12.68;3.10;;;3.40;99.90;;;;;;5112285;28;20422;-64
2024/01/11 05:38:58;;;;;;;7.82;3.00;;;3.50;99.90;;;;;;5103966;28;20491;-65
2024/01/11 05:41:25;;;;;;;10.05;3.40;;;3.50;99.90;;;;;;5092922;28;20051;-64
2024/01/11 05:43:53;;;;;;;9.60;3.72;;;3.50;99.90;;;;;;5112930;28;20125;-64
2024/01/11 05:46:22;;;;;;;12.37;3.47;;;3.50;99.90;;;;;;5113015;28;20043;-64
2024/01/11 05:48:50;;;;;;;10.55;3.50;;;3.50;99.90;;;;;;5081213;28;20308;-64
2024/01/11 05:51:18;;;;;;;8.23;3.60;;;3.50;99.90;;;;;;5074657;28;20051;-64
2024/01/11 05:53:45;;;;;;;8.52;3.30;;;3.50;99.90;;;;;;5089140;28;20048;-64
2024/01/11 05:56:13;;;;;;;18.60;4.13;;;3.50;99.90;;;;;;5087918;28;20036;-64
2024/01/11 05:58:41;;;;;;;14.25;4.15;;;3.40;99.90;;;;;;5080896;28;20056;-63
2024/01/11 06:01:09;;;;;;;17.45;3.90;;;3.40;99.90;;;;;;5074122;28;20047;-64
2024/01/11 06:03:38;;;;;;;9.30;3.67;;;3.40;99.90;;;;;;5069454;28;20114;-67
2024/01/11 06:06:06;;;;;;;7.15;3.92;;;3.20;99.90;;;;;;5065110;28;20052;-65
2024/01/11 06:08:34;;;;;;;10.80;3.63;;;3.20;99.90;;;;;;5089186;28;20048;-64
2024/01/11 06:11:03;;;;;;;7.47;2.75;;;3.20;99.90;;;;;;5102279;28;20047;-64
2024/01/11 06:13:31;;;;;;;5.05;2.25;;;3.10;99.90;;;;;;5088460;28;20048;-65
2024/01/11 06:15:59;;;;;;;4.60;2.33;;;3.10;99.90;;;;;;5086111;28;20040;-64
2024/01/11 06:18:27;;;;;;;9.63;2.85;;;3.10;99.90;;;;;;5072194;28;20151;-65
2024/01/11 06:20:55;;;;;;;6.22;2.30;;;3.10;99.90;;;;;;5068432;28;20055;-65
2024/01/11 06:23:25;;;;;;;6.65;2.33;;;3.10;99.90;;;;;;5096424;28;20039;-64
2024/01/11 06:25:53;;;;;;;6.20;2.75;;;3.00;99.90;;;;;;5108296;28;20055;-65
2024/01/11 06:28:20;;;;;;;3.92;2.40;;;3.00;99.90;;;;;;5086497;28;20502;-64
2024/01/11 06:30:48;;;;;;;5.10;2.10;;;3.00;99.90;;;;;;5085803;28;20043;-63
2024/01/11 06:33:16;;;;;;;6.65;2.40;;;3.00;99.90;;;;;;5082281;28;20396;-64
2024/01/11 06:35:44;;;;;;;5.40;2.30;;;3.00;99.90;;;;;;5080170;28;20041;-65
2024/01/11 06:38:13;;;;;;;2.85;1.95;;;3.00;99.90;;;;;;5077661;28;20255;-65
2024/01/11 06:40:41;;;;;;;5.03;2.05;;;3.00;99.90;;;;;;5083846;28;20550;-63
2024/01/11 06:43:09;;;;;;;3.85;2.03;;;3.00;99.90;;;;;;5087033;28;20040;-64
2024/01/11 06:45:36;;;;;;;4.95;2.30;;;3.00;99.90;;;;;;5087390;28;20403;-64
2024/01/11 06:48:04;;;;;;;3.05;2.25;;;3.00;99.90;;;;;;5070558;28;20048;-64
2024/01/11 06:50:32;;;;;;;4.55;2.72;;;3.00;99.90;;;;;;5102552;28;20394;-63
2024/01/11 06:53:01;;;;;;;7.32;2.50;;;3.10;99.90;;;;;;5086610;28;20048;-64
2024/01/11 06:55:29;;;;;;;3.78;2.13;;;3.10;99.90;;;;;;5087809;28;20399;-64
2024/01/11 06:57:57;;;;;;;7.88;2.55;;;3.10;99.90;;;;;;5083496;28;20044;-65
2024/01/11 07:00:25;;;;;;;3.63;2.53;;;3.10;99.90;;;;;;5067906;28;20044;-64
2024/01/11 07:02:53;;;;;;;4.55;2.22;;;3.20;99.90;;;;;;5067067;28;20051;-64
2024/01/11 07:05:21;;;;;;;4.43;2.22;;;3.20;99.90;;;;;;5082408;28;20048;-68
2024/01/11 07:07:49;;;;;;;3.95;2.75;;;3.20;99.90;;;;;;5092360;28;20494;-66
2024/01/11 07:10:17;;;;;;;4.75;2.38;;;3.20;99.90;;;;;;5108368;28;20054;-64
2024/01/11 07:12:45;;;;;;;5.40;2.28;;;3.30;99.90;;;;;;5104229;28;20052;-65
2024/01/11 07:15:14;;;;;;;4.60;3.00;;;3.30;99.90;;;;;;5099981;28;20063;-65
2024/01/11 07:17:42;;;;;;;5.13;2.03;;;3.30;99.90;;;;;;5085321;28;20047;-64
2024/01/11 07:20:10;;;;;;;6.63;1.83;;;3.30;99.90;;;;;;5079223;28;20498;-64
2024/01/11 07:22:38;;;;;;;6.28;2.75;;;3.30;99.90;;;;;;5072383;28;20048;-65
2024/01/11 07:25:09;;;;;;;2.97;2.03;;;3.40;99.90;;;;;;5076912;28;20047;-65
2024/01/11 07:27:37;;;;;;;9.77;2.83;;;3.40;99.90;;;;;;5087290;28;20055;-66
2024/01/11 07:30:06;;;;;;;12.23;2.65;;;3.40;99.90;;;;;;5090560;28;20047;-64
2024/01/11 07:32:34;;;;;;;2.13;1.55;;;3.40;99.90;;;;;;5084734;28;20047;-64
2024/01/11 07:35:02;;;;;;;8.20;2.13;;;3.40;99.90;;;;;;5078673;28;20387;-64
2024/01/11 07:37:32;;;;;;;6.93;2.35;;;3.40;99.90;;;;;;5091764;28;20521;-64
2024/01/11 07:40:00;;;;;;;10.52;2.58;;;3.40;99.90;;;;;;5097158;28;20052;-65
2024/01/11 07:42:27;;;;;;;6.68;2.53;;;3.40;99.90;;;;;;5100660;28;20047;-64
2024/01/11 07:44:55;;;;;;;6.38;2.28;;;3.40;99.90;;;;;;5070968;28;20068;-65
2024/01/11 07:47:24;;;;;;;5.90;1.92;;;3.40;99.90;;;;;;5072690;28;20055;-64
2024/01/11 07:49:51;;;;;;;6.03;2.47;;;3.50;99.90;;;;;;5077342;28;20043;-65
2024/01/11 07:52:19;;;;;;;9.23;2.58;;;3.40;99.90;;;;;;5090981;28;20067;-64
2024/01/11 07:54:48;;;;;;;4.35;2.40;;;3.50;99.90;;;;;;5091424;28;20426;-64
2024/01/11 07:57:15;;;;;;;7.28;2.70;;;3.50;99.90;;;;;;5087219;28;20047;-66
2024/01/11 07:59:43;;;;;;;10.55;3.35;;;3.50;99.90;;;;;;5091314;28;20364;-65
2024/01/11 08:02:11;;;;;;;13.38;3.13;;;3.50;99.90;;;;;;5088395;28;20051;-65
2024/01/11 08:04:38;;;;;;;6.43;3.22;;;3.50;99.90;;;;;;5084690;28;20064;-68
2024/01/11 08:07:06;;;;;;;15.77;4.03;;;3.50;99.90;;;;;;5084520;28;20052;-65
2024/01/11 08:09:34;;;;;;;11.10;4.15;;;3.50;99.90;;;;;;5107423;28;20048;-69
2024/01/11 08:12:01;;;;;;;10.15;4.60;;;3.60;99.90;;;;;;5109547;28;20052;-65
2024/01/11 08:14:29;;;;;;;8.60;4.05;;;3.60;99.90;;;;;;5089036;28;20036;-70
2024/01/11 08:16:58;;;;;;;14.85;4.32;;;3.60;99.90;;;;;;5090998;28;20040;-65
2024/01/11 08:19:26;;;;;;;8.90;4.03;;;3.60;99.90;;;;;;5085029;28;20049;-65
2024/01/11 08:21:56;;;;;;;8.40;3.95;;;3.60;99.90;;;;;;5081951;28;20771;-65
2024/01/11 08:24:24;;;;;;;15.95;4.22;;;3.70;99.90;;;;;;5072801;28;20048;-65
2024/01/11 08:26:55;;;;;;;9.32;4.30;;;3.70;99.90;;;;;;5080437;28;20040;-64
2024/01/11 08:29:23;;;;;;;12.43;5.18;;;3.70;99.90;;;;;;5083231;28;20048;-64
2024/01/11 08:31:51;;;;;;;11.75;4.90;;;3.70;99.90;;;;;;5082605;28;20032;-64
2024/01/11 08:34:19;;;;;;;11.13;4.28;;;3.70;99.90;;;;;;5081900;28;20057;-65
2024/01/11 08:36:47;;;;;;;14.27;5.18;;;3.70;99.90;;;;;;5073309;28;20510;-64
2024/01/11 08:39:15;;;;;;;8.50;4.35;;;3.70;99.90;;;;;;5088971;28;20040;-66
2024/01/11 08:41:42;;;;;;;10.65;3.83;;;3.70;99.90;;;;;;5081025;28;20508;-65
2024/01/11 08:44:10;;;;;;;11.32;4.22;;;3.70;99.90;;;;;;5089751;28;20047;-65
2024/01/11 08:46:38;;;;;;;11.70;4.43;;;3.70;99.90;;;;;;5088961;28;20056;-65
2024/01/11 08:49:05;;;;;;;7.05;4.13;;;3.70;99.90;;;;;;5082299;28;20091;-65
2024/01/11 08:51:33;;;;;;;13.07;5.20;;;3.80;99.90;;;;;;5072495;28;20428;-64
2024/01/11 08:54:01;;;;;;;8.77;3.80;;;3.80;99.90;;;;;;5087631;28;20044;-64
2024/01/11 08:56:29;;;;;;;12.55;4.00;;;3.80;99.90;;;;;;5087342;28;20048;-65
2024/01/11 08:58:58;;;;;;;12.02;4.00;;;3.80;99.90;;;;;;5087523;28;20426;-65
2024/01/11 09:01:26;;;;;;;8.65;3.55;;;3.80;99.90;;;;;;5090262;28;20040;-65
2024/01/11 09:03:54;;;;;;;7.10;3.75;;;3.80;99.90;;;;;;5086358;28;20067;-65
2024/01/11 09:06:22;;;;;;;6.22;3.10;;;3.90;99.90;;;;;;5088970;28;20044;-64
2024/01/11 09:08:50;;;;;;;10.27;3.40;;;3.90;99.90;;;;;;5089443;28;20048;-65
2024/01/11 09:11:17;;;;;;;6.70;3.20;;;4.00;99.90;;;;;;5087836;28;20041;-64
2024/01/11 09:13:45;;;;;;;9.25;4.53;;;3.90;99.90;;;;;;5108141;28;20044;-66
2024/01/11 09:16:16;;;;;;;16.30;7.35;;;4.00;99.90;;;;;;5090197;28;20044;-66
2024/01/11 09:18:45;;;;;;;20.73;9.80;;;4.00;99.90;;;;;;5089387;28;20047;-65
2024/01/11 09:21:13;;;;;;;15.65;7.03;;;4.00;99.90;;;;;;5065746;28;20045;-67
2024/01/11 09:23:41;;;;;;;12.43;3.85;;;4.10;99.90;;;;;;5077139;28;20040;-66
2024/01/11 09:26:08;;;;;;;10.45;3.97;;;4.10;99.90;;;;;;5083165;28;20056;-67
2024/01/11 09:28:36;;;;;;;6.55;4.53;;;4.10;99.90;;;;;;5071811;28;20059;-65
2024/01/11 09:31:04;;;;;;;13.63;5.13;;;4.10;99.90;;;;;;5087002;28;20036;-66
2024/01/11 09:33:32;;;;;;;11.68;4.20;;;4.20;99.90;;;;;;5097901;28;20040;-66
2024/01/11 09:35:59;;;;;;;13.02;4.53;;;4.20;99.90;;;;;;5080350;28;20387;-66
2024/01/11 09:38:27;;;;;;;19.83;7.47;;;4.20;99.90;;;;;;5085968;28;20051;-68
2024/01/11 09:41:09;;;;;;;43.67;11.85;;;4.30;99.90;;;;;;5068923;28;20045;-65
2024/01/11 09:43:41;;;;;;;16.35;6.15;;;4.40;99.90;;;;;;5088566;28;20044;-66
2024/01/11 09:46:10;;;;;;;;;;;4.40;99.90;;;;;;5087781;28;20063;-67
2024/01/11 09:48:40;;;;;;;13.45;4.20;;;4.40;99.90;;;;;;5086895;28;19920;-66
2024/01/11 09:51:09;;;;;;;;;;;4.40;99.90;;;;;;5070756;28;20052;-66
2024/01/11 09:53:39;;;;;;;10.93;3.35;;;4.50;99.90;;;;;;5083250;28;19919;-66
2024/01/11 09:56:09;;;;;;;9.70;3.28;;;4.50;99.90;;;;;;5083774;28;20067;-66
2024/01/11 09:58:36;;;;;;;;;;;4.50;99.90;;;;;;5089629;28;20047;-66
2024/01/11 10:01:12;;;;;;;13.15;3.75;;;4.60;99.90;;;;;;5085223;28;20408;-66
2024/01/11 10:03:44;;;;;;;10.52;3.17;;;4.60;99.90;;;;;;5086599;28;20044;-65
2024/01/11 10:06:13;;;;;;;9.40;4.10;;;4.60;99.90;;;;;;5053956;28;20060;-66
2024/01/11 10:08:41;;;;;;;6.50;3.93;;;4.70;99.90;;;;;;5078274;28;20484;-65
2024/01/11 10:11:09;;;;;;;9.65;3.30;;;4.70;99.90;;;;;;5067875;28;20301;-67
2024/01/11 10:13:38;;;;;;;11.95;3.95;;;4.70;99.90;;;;;;5085108;28;20063;-68
2024/01/11 10:16:09;;;;;;;10.75;4.82;;;4.70;99.90;;;;;;5068783;28;20061;-65
2024/01/11 10:18:37;;;;;;;9.27;3.40;;;4.70;99.90;;;;;;5087410;28;20040;-67
2024/01/11 10:21:05;;;;;;;8.35;3.55;;;4.70;99.90;;;;;;5082530;28;20044;-67
2024/01/11 10:23:34;;;;;;;7.50;2.72;;;4.70;99.90;;;;;;5068996;28;20545;-65
2024/01/11 10:26:02;;;;;;;5.22;2.58;;;4.70;99.90;;;;;;5066730;28;20047;-65
2024/01/11 10:28:30;;;;;;;9.60;3.05;;;4.80;99.90;;;;;;5078205;28;20427;-66
2024/01/11 10:30:59;;;;;;;11.77;2.90;;;4.80;99.90;;;;;;5074667;28;20044;-66
2024/01/11 10:33:26;;;;;;;5.43;2.42;;;4.80;99.90;;;;;;5093023;28;20043;-67
2024/01/11 10:35:55;;;;;;;5.05;2.50;;;4.80;99.90;;;;;;5071727;28;20059;-69
2024/01/11 10:38:25;;;;;;;6.43;2.50;;;4.90;99.90;;;;;;5085944;28;20051;-66
2024/01/11 10:40:55;;;;;;;7.28;3.00;;;4.90;99.90;;;;;;5087914;28;20055;-66
2024/01/11 10:43:23;;;;;;;10.10;2.80;;;4.90;99.90;;;;;;5088532;28;20060;-65
2024/01/11 10:45:56;;;;;;;12.23;3.03;;;5.00;99.90;;;;;;5082945;28;20330;-67
2024/01/11 10:48:28;;;;;;;6.53;2.72;;;5.00;99.90;;;;;;5080223;28;20048;-66
2024/01/11 10:51:00;;;;;;;11.82;3.33;;;5.10;99.90;;;;;;5079329;28;20039;-68
2024/01/11 10:53:45;;;;;;;9.52;3.70;;;5.10;99.90;;;;;;5088388;28;20047;-66
2024/01/11 10:56:18;;;;;;;8.35;3.00;;;5.20;99.90;;;;;;5075137;28;20044;-66
2024/01/11 10:58:47;;;;;;;11.98;3.00;;;5.20;99.90;;;;;;5083841;28;20056;-64
2024/01/11 11:01:18;;;;;;;9.07;3.83;;;5.30;99.90;;;;;;5099162;28;20499;-67
2024/01/11 11:03:47;;;;;;;7.03;3.88;;;5.40;99.90;;;;;;5090851;28;20051;-65
2024/01/11 11:06:18;;;;;;;8.83;3.17;;;5.40;99.90;;;;;;5071525;28;20040;-65
2024/01/11 11:08:49;;;;;;;6.30;3.40;;;5.50;99.90;;;;;;5083294;28;20048;-64
2024/01/11 11:11:18;;;;;;;8.10;3.70;;;5.60;99.90;;;;;;5071999;28;20045;-64
2024/01/11 11:13:48;;;;;;;7.10;3.33;;;5.70;99.90;;;;;;5107180;28;20062;-67
2024/01/11 11:16:16;;;;;;;6.05;2.95;;;5.70;99.90;;;;;;5091429;28;20051;-67
2024/01/11 11:18:44;;;;;;;9.63;5.03;;;5.80;99.90;;;;;;5090029;28;20499;-69
2024/01/11 11:21:12;;;;;;;5.50;2.85;;;5.80;99.90;;;;;;5081373;28;20067;-66
2024/01/11 11:23:39;;;;;;;6.45;3.15;;;5.80;99.90;;;;;;5088171;28;20052;-68
2024/01/11 11:26:16;;;;;;;5.70;2.90;;;5.90;99.90;;;;;;5087161;28;20656;-66
2024/01/11 11:28:44;;;;;;;8.15;2.83;;;5.90;99.90;;;;;;5085774;28;20047;-66
2024/01/11 11:31:12;;;;;;;7.30;2.55;;;6.00;99.90;;;;;;5090063;28;20048;-64
2024/01/11 11:33:40;;;;;;;4.35;2.60;;;6.00;99.90;;;;;;5089935;28;20052;-64
2024/01/11 11:36:13;;;;;;;2.70;2.17;;;6.10;99.90;;;;;;5081043;28;20048;-68
2024/01/11 11:38:42;;;;;;;5.97;2.30;;;6.10;99.90;;;;;;5082891;28;20036;-66
2024/01/11 11:41:11;;;;;;;5.88;2.25;;;6.20;99.90;;;;;;5091838;28;20055;-67
2024/01/11 11:43:40;;;;;;;2.83;1.98;;;6.20;99.90;;;;;;5096185;28;20077;-67
2024/01/11 11:46:08;;;;;;;3.08;2.25;;;6.20;99.90;;;;;;5091229;28;20040;-68
2024/01/11 11:48:45;;;;;;;4.07;2.07;;;6.20;99.90;;;;;;5084143;28;20054;-69
2024/01/11 11:51:16;;;;;;;3.13;1.95;;;6.30;99.90;;;;;;5088777;28;20060;-72
2024/01/11 11:53:49;;;;;;;3.33;1.85;;;6.30;99.90;;;;;;5086534;28;20040;-70
2024/01/11 11:56:20;;;;;;;;;;;6.30;99.90;;;;;;5082042;28;20052;-65
2024/01/11 11:58:49;;;;;;;5.60;2.40;;;6.30;99.90;;;;;;5094315;28;20291;-65
2024/01/11 12:01:18;;;;;;;3.33;2.38;;;6.30;99.90;;;;;;5080586;28;20052;-65
2024/01/11 12:03:49;;;;;;;3.92;2.03;;;6.30;99.90;;;;;;5077401;28;20052;-65
2024/01/11 12:06:20;;;;;;;3.78;2.22;;;6.30;99.90;;;;;;5076823;28;20056;-65
2024/01/11 12:08:48;;;;;;;3.67;2.00;;;6.30;99.90;;;;;;5089514;28;20055;-65
2024/01/11 12:11:21;;;;;;;8.15;2.33;;;6.40;99.90;;;;;;5070431;28;20063;-65
2024/01/11 12:13:50;;;;;;;8.95;2.08;;;6.40;99.90;;;;;;5093957;28;20052;-67
2024/01/11 12:16:17;;;;;;;3.40;1.70;;;6.40;99.90;;;;;;5090802;28;20044;-70
2024/01/11 12:18:45;;;;;;;6.82;1.67;;;6.50;99.90;;;;;;5089843;28;20048;-67
2024/01/11 12:21:14;;;;;;;6.72;1.98;;;6.40;99.90;;;;;;5070063;28;20407;-72
2024/01/11 12:23:44;;;;;;;5.70;1.92;;;6.50;99.90;;;;;;5089715;28;20044;-64
2024/01/11 12:26:14;;;;;;;6.32;1.92;;;6.50;99.90;;;;;;5090822;28;20056;-67
2024/01/11 12:28:43;;;;;;;8.68;1.90;;;6.40;99.90;;;;;;5083929;28;20048;-68
2024/01/11 12:31:12;;;;;;;2.78;1.50;;;6.40;99.90;;;;;;5090479;28;20403;-69
2024/01/11 12:33:41;;;;;;;3.92;2.03;;;6.40;99.90;;;;;;5088931;28;20044;-70
2024/01/11 12:36:10;;;;;;;12.35;2.65;;;6.40;99.90;;;;;;5086802;28;20048;-64
2024/01/11 12:38:39;;;;;;;10.13;3.47;;;6.30;99.90;;;;;;5089992;28;20040;-67
2024/01/11 12:41:08;;;;;;;8.93;3.13;;;6.40;99.90;;;;;;5090301;28;20056;-68
2024/01/11 12:43:35;;;;;;;9.57;3.42;;;6.30;99.90;;;;;;5102983;28;20406;-64
2024/01/11 12:46:03;;;;;;;7.75;2.88;;;6.30;99.90;;;;;;5089267;28;20067;-63
2024/01/11 12:48:31;;;;;;;6.88;2.40;;;6.30;99.90;;;;;;5088719;28;20880;-64
2024/01/11 12:50:59;;;;;;;4.15;1.98;;;6.30;99.90;;;;;;5077514;28;20041;-66
2024/01/11 12:53:48;;;;;;;5.70;1.98;;;6.20;99.90;;;;;;5099387;28;20052;-66
2024/01/11 12:56:17;;;;;;;6.65;1.90;;;6.20;99.90;;;;;;5091014;28;20424;-65
2024/01/11 12:58:46;;;;;;;4.47;1.87;;;6.20;99.90;;;;;;5078756;28;20063;-63
2024/01/11 13:01:14;;;;;;;7.30;1.90;;;6.20;99.90;;;;;;5077161;28;20044;-65